Time;durP1;ratioP1;P1;durP2;ratioP2;P2;SDS_P1;SDS_P2;PMS_P1;PMS_P2;Temp;Humidity;BMP_temperature;BMP_pressure;BME280_temperature;BME280_humidity;BME280_pressure;Samples;Min_cycle;Max_cycle;Signal;HPM_P1;HPM_P2
2021/06/16 00:02:24;;;;;;;23.05;13.57;;;16.00;99.90;;;;;;5112149;28;20646;-84
2021/06/16 00:04:50;;;;;;;24.35;12.88;;;15.60;99.90;;;;;;5112135;28;20543;-84
2021/06/16 00:07:16;;;;;;;25.80;13.57;;;;;;;;;;5113312;28;20954;-84
2021/06/16 00:09:42;;;;;;;19.85;13.50;;;15.00;99.90;;;;;;5113874;28;20182;-84
2021/06/16 00:12:09;;;;;;;18.50;13.23;;;;;;;;;;5111820;28;20182;-84
2021/06/16 00:14:35;;;;;;;21.65;14.00;;;15.30;99.90;;;;;;5113621;28;20167;-84
2021/06/16 00:17:01;;;;;;;18.77;13.23;;;;;;;;;;5113226;28;20281;-85
2021/06/16 00:19:27;;;;;;;21.83;13.23;;;15.10;99.90;;;;;;5112392;28;20256;-84
2021/06/16 00:21:53;;;;;;;20.10;13.02;;;;;;;;;;5111991;28;20709;-84
2021/06/16 00:24:20;;;;;;;21.10;13.55;;;15.50;99.90;;;;;;5112865;28;20169;-84
2021/06/16 00:26:49;;;;;;;21.80;13.13;;;15.20;99.90;;;;;;5112122;28;20697;-84
2021/06/16 00:29:15;;;;;;;24.73;13.40;;;15.30;99.90;;;;;;5113060;28;20294;-84
2021/06/16 00:31:42;;;;;;;20.75;13.48;;;15.30;99.90;;;;;;5114704;27;20189;-84
2021/06/16 00:34:07;;;;;;;19.20;13.52;;;15.90;99.90;;;;;;5116118;28;20203;-84
2021/06/16 00:36:33;;;;;;;22.83;13.05;;;15.20;99.90;;;;;;5099393;28;20186;-84
2021/06/16 00:38:59;;;;;;;20.55;12.73;;;15.40;99.90;;;;;;5116278;28;20174;-84
2021/06/16 00:41:26;;;;;;;19.20;13.02;;;15.40;99.90;;;;;;5099082;28;20239;-84
2021/06/16 00:43:53;;;;;;;18.50;12.75;;;15.60;99.90;;;;;;5117062;28;20630;-84
2021/06/16 00:46:18;;;;;;;20.80;13.18;;;15.40;99.90;;;;;;5116959;28;20237;-85
2021/06/16 00:48:44;;;;;;;23.10;13.60;;;;;;;;;;5116048;28;20588;-85
2021/06/16 00:51:10;;;;;;;22.38;13.85;;;16.00;99.90;;;;;;5115510;28;20184;-85
2021/06/16 00:53:36;;;;;;;18.38;12.80;;;15.50;99.90;;;;;;5117170;28;20181;-85
2021/06/16 00:56:02;;;;;;;20.17;14.27;;;;;;;;;;5115523;28;20182;-86
2021/06/16 00:58:28;;;;;;;20.98;12.93;;;15.50;99.90;;;;;;5117158;28;20166;-84
2021/06/16 01:01:18;;;;;;;24.50;13.32;;;15.50;99.90;;;;;;5116965;28;20212;-84
2021/06/16 01:03:53;;;;;;;20.13;13.18;;;15.30;99.90;;;;;;5115850;28;20170;-84
2021/06/16 01:06:25;;;;;;;19.20;14.02;;;15.80;99.90;;;;;;5116539;28;20200;-85
2021/06/16 01:09:22;;;;;;;20.40;13.18;;;15.50;99.90;;;;;;5115798;28;20182;-84
2021/06/16 01:12:03;;;;;;;25.05;12.68;;;15.30;99.90;;;;;;5111049;28;20185;-85
2021/06/16 01:14:59;;;;;;;22.15;14.00;;;15.80;99.90;;;;;;5116723;28;20280;-85
2021/06/16 01:17:47;;;;;;;21.58;13.10;;;15.10;99.90;;;;;;5116432;28;20197;-85
2021/06/16 01:20:28;;;;;;;20.70;13.60;;;15.30;99.90;;;;;;5116607;28;20735;-85
2021/06/16 01:23:09;;;;;;;25.90;13.68;;;15.50;99.90;;;;;;5116822;28;20680;-85
2021/06/16 01:26:03;;;;;;;21.58;14.70;;;15.10;99.90;;;;;;5115106;28;20265;-85
2021/06/16 01:28:46;;;;;;;25.25;14.43;;;15.40;99.90;;;;;;5116171;28;20185;-84
2021/06/16 01:31:15;;;;;;;26.55;15.00;;;15.80;99.90;;;;;;5115881;28;20162;-85
2021/06/16 01:33:42;;;;;;;25.83;15.18;;;15.00;99.90;;;;;;5116412;28;20174;-84
2021/06/16 01:36:10;;;;;;;25.60;15.07;;;15.70;99.90;;;;;;5114929;28;20178;-85
2021/06/16 01:38:36;;;;;;;21.52;14.45;;;15.10;99.90;;;;;;5116008;28;20208;-84
2021/06/16 01:41:03;;;;;;;23.88;15.02;;;15.20;99.90;;;;;;5114516;28;20213;-84
2021/06/16 01:43:30;;;;;;;24.45;14.50;;;15.50;99.90;;;;;;5115581;28;20180;-84
2021/06/16 01:45:59;;;;;;;32.15;15.82;;;14.80;99.90;;;;;;5115855;28;20252;-85
2021/06/16 01:48:26;;;;;;;24.90;14.98;;;14.90;99.90;;;;;;5116093;28;20180;-84
2021/06/16 01:50:53;;;;;;;23.27;14.73;;;15.30;99.90;;;;;;5114896;28;20177;-84
2021/06/16 01:53:20;;;;;;;24.27;15.85;;;14.90;99.90;;;;;;5115807;28;20259;-85
2021/06/16 01:55:49;;;;;;;23.90;15.40;;;15.50;99.90;;;;;;5114560;28;20626;-84
2021/06/16 01:58:18;;;;;;;23.20;14.55;;;15.40;99.90;;;;;;5115651;28;20268;-84
2021/06/16 02:00:45;;;;;;;22.77;14.80;;;14.50;99.90;;;;;;5115909;27;20269;-83
2021/06/16 02:03:11;;;;;;;25.00;15.07;;;15.00;99.90;;;;;;5115591;28;20235;-84
2021/06/16 02:05:37;;;;;;;23.30;14.82;;;14.70;99.90;;;;;;5115786;28;20570;-84
2021/06/16 02:08:13;;;;;;;20.02;14.00;;;14.80;99.90;;;;;;5114724;28;20185;-83
2021/06/16 02:10:46;;;;;;;24.00;15.07;;;14.50;99.90;;;;;;5115902;28;20173;-83
2021/06/16 02:13:13;;;;;;;23.80;15.23;;;14.70;99.90;;;;;;5115352;28;20214;-84
2021/06/16 02:15:56;;;;;;;31.40;15.55;;;14.50;99.90;;;;;;5114466;28;20653;-83
2021/06/16 02:18:39;;;;;;;26.50;15.77;;;14.80;99.90;;;;;;5114991;28;20162;-84
2021/06/16 02:21:05;;;;;;;21.33;15.30;;;15.00;99.90;;;;;;5115568;28;20177;-84
2021/06/16 02:23:31;;;;;;;20.67;15.45;;;14.60;99.90;;;;;;5114106;28;20174;-84
2021/06/16 02:25:57;;;;;;;26.77;16.23;;;14.40;99.90;;;;;;5115134;28;20612;-84
2021/06/16 02:28:23;;;;;;;21.67;15.25;;;;;;;;;;5114182;28;20684;-84
2021/06/16 02:30:49;;;;;;;28.42;16.42;;;14.40;99.90;;;;;;5113917;28;20196;-84
2021/06/16 02:33:14;;;;;;;22.80;15.02;;;14.70;99.90;;;;;;5096789;28;20182;-85
2021/06/16 02:35:40;;;;;;;23.23;15.57;;;15.10;99.90;;;;;;5113888;28;20174;-84
2021/06/16 02:38:12;;;;;;;26.90;15.85;;;14.80;99.90;;;;;;5098014;28;20190;-83
2021/06/16 02:40:41;;;;;;;22.52;15.00;;;14.80;99.90;;;;;;5114138;28;20185;-84
2021/06/16 02:43:07;;;;;;;22.25;16.02;;;15.10;99.90;;;;;;5115103;28;20222;-84
2021/06/16 02:45:37;;;;;;;25.33;15.18;;;14.70;99.90;;;;;;5113445;28;20255;-84
2021/06/16 02:48:05;;;;;;;24.95;15.30;;;14.80;99.90;;;;;;5114177;28;20217;-84
2021/06/16 02:50:31;;;;;;;24.23;16.02;;;15.20;99.90;;;;;;5113286;28;20217;-84
2021/06/16 02:53:02;;;;;;;22.60;15.32;;;14.50;99.90;;;;;;5114284;27;20231;-83
2021/06/16 02:55:29;;;;;;;25.50;14.75;;;14.90;99.90;;;;;;5114645;28;20163;-84
2021/06/16 02:57:56;;;;;;;22.75;15.07;;;14.50;99.90;;;;;;5114554;28;20198;-84
2021/06/16 03:00:23;;;;;;;20.38;14.95;;;14.70;99.90;;;;;;5113236;28;20251;-84
2021/06/16 03:02:50;;;;;;;27.25;16.05;;;15.00;99.90;;;;;;5114677;28;20260;-84
2021/06/16 03:05:21;;;;;;;20.50;14.90;;;15.00;99.90;;;;;;5114262;28;20178;-85
2021/06/16 03:07:49;;;;;;;22.33;14.45;;;15.00;99.90;;;;;;5113351;28;20209;-86
2021/06/16 03:10:17;;;;;;;20.08;14.25;;;15.10;99.90;;;;;;5113124;28;20601;-83
2021/06/16 03:12:43;;;;;;;26.90;15.48;;;15.00;99.90;;;;;;5112975;28;20232;-83
2021/06/16 03:15:10;;;;;;;24.38;14.65;;;15.00;99.90;;;;;;5114521;27;20191;-83
2021/06/16 03:17:36;;;;;;;22.40;14.88;;;14.90;99.90;;;;;;5112851;28;20434;-85
2021/06/16 03:20:04;;;;;;;22.40;15.18;;;15.20;99.90;;;;;;5114208;28;20592;-83
2021/06/16 03:22:31;;;;;;;26.08;15.98;;;15.40;99.90;;;;;;5114821;28;20169;-83
2021/06/16 03:24:57;;;;;;;25.08;16.35;;;15.20;99.90;;;;;;5114325;28;20165;-83
2021/06/16 03:27:25;;;;;;;22.70;16.05;;;15.80;99.90;;;;;;5113782;28;20198;-83
2021/06/16 03:29:52;;;;;;;24.23;15.20;;;15.10;99.90;;;;;;5114347;28;20181;-83
2021/06/16 03:32:20;;;;;;;26.00;15.45;;;15.50;99.90;;;;;;5113060;28;20273;-83
2021/06/16 03:34:46;;;;;;;26.50;15.20;;;15.50;99.90;;;;;;5112962;28;20322;-83
2021/06/16 03:37:12;;;;;;;29.05;15.45;;;15.60;99.90;;;;;;5114158;28;20203;-83
2021/06/16 03:39:39;;;;;;;19.85;15.00;;;15.70;99.90;;;;;;5113908;28;20185;-84
2021/06/16 03:42:05;;;;;;;22.60;14.35;;;15.40;99.90;;;;;;5113191;28;20200;-84
2021/06/16 03:44:34;;;;;;;23.77;15.07;;;15.70;99.90;;;;;;5112577;28;20548;-84
2021/06/16 03:47:02;;;;;;;23.55;15.38;;;15.60;99.90;;;;;;5114225;28;20680;-84
2021/06/16 03:49:31;;;;;;;24.52;14.75;;;15.60;99.90;;;;;;5113936;28;20170;-84
2021/06/16 03:51:57;;;;;;;23.88;15.23;;;15.60;99.90;;;;;;5114344;28;20177;-84
2021/06/16 03:54:25;;;;;;;23.60;16.08;;;15.90;99.90;;;;;;5113599;28;20174;-85
2021/06/16 03:56:51;;;;;;;20.80;15.23;;;16.00;99.90;;;;;;5113716;28;20197;-83
2021/06/16 03:59:20;;;;;;;24.67;14.85;;;16.40;99.90;;;;;;5113618;28;20204;-85
2021/06/16 04:01:46;;;;;;;25.45;15.55;;;;;;;;;;5121378;28;20177;-83
2021/06/16 04:04:12;;;;;;;23.45;15.82;;;16.10;99.90;;;;;;5124328;28;20226;-84
2021/06/16 04:06:44;;;;;;;24.52;15.25;;;16.30;99.90;;;;;;5124886;28;20217;-84
2021/06/16 04:09:14;;;;;;;24.30;14.93;;;16.20;99.90;;;;;;5126356;28;20240;-84
2021/06/16 04:11:42;;;;;;;24.25;15.18;;;16.40;99.90;;;;;;5120703;28;20170;-85
2021/06/16 04:14:08;;;;;;;24.05;15.10;;;16.50;99.90;;;;;;5113368;28;20233;-85
2021/06/16 04:16:34;;;;;;;24.38;14.40;;;;;;;;;;5113150;28;20631;-85
2021/06/16 04:19:01;;;;;;;23.23;15.02;;;16.60;99.90;;;;;;5112162;28;20205;-85
2021/06/16 04:21:26;;;;;;;22.45;14.98;;;16.60;99.90;;;;;;5111822;28;20169;-85
2021/06/16 04:23:52;;;;;;;24.40;15.18;;;17.10;99.90;;;;;;5113775;28;20227;-85
2021/06/16 04:26:20;;;;;;;20.58;14.57;;;16.90;99.90;;;;;;5095388;28;20595;-84
2021/06/16 04:28:46;;;;;;;25.73;14.10;;;;;;;;;;5113046;28;20257;-84
2021/06/16 04:31:12;;;;;;;24.52;14.98;;;17.00;99.90;;;;;;5113580;28;20253;-84
2021/06/16 04:33:38;;;;;;;19.70;14.57;;;;;;;;;;5112712;28;20256;-84
2021/06/16 04:36:05;;;;;;;23.33;14.98;;;16.90;99.90;;;;;;5112000;28;20204;-84
2021/06/16 04:38:32;;;;;;;28.33;15.25;;;17.00;99.90;;;;;;5112912;28;20178;-84
2021/06/16 04:40:58;;;;;;;23.65;14.77;;;17.30;99.90;;;;;;5113079;28;20626;-85
2021/06/16 04:43:24;;;;;;;21.13;14.10;;;;;;;;;;5112007;28;20234;-87
2021/06/16 04:45:50;;;;;;;21.73;14.88;;;18.00;99.90;;;;;;5113318;28;20182;-85
2021/06/16 04:48:16;;;;;;;28.77;15.27;;;17.80;99.90;;;;;;5113006;28;20190;-85
2021/06/16 04:50:42;;;;;;;22.48;14.25;;;;;;;;;;5112103;28;20185;-85
2021/06/16 04:53:08;;;;;;;24.33;14.32;;;18.40;99.90;;;;;;5113439;28;20170;-85
2021/06/16 04:55:34;;;;;;;26.15;14.48;;;;;;;;;;5112848;28;20204;-85
2021/06/16 04:58:00;;;;;;;26.10;14.65;;;18.20;99.90;;;;;;5113916;28;20182;-85
2021/06/16 05:00:25;;;;;;;29.13;14.95;;;18.10;99.90;;;;;;5113821;28;20167;-85
2021/06/16 05:02:55;;;;;;;25.05;14.80;;;18.10;99.90;;;;;;5094657;28;20193;-85
2021/06/16 05:05:25;;;;;;;27.17;15.38;;;18.40;99.90;;;;;;5112836;28;20174;-84
2021/06/16 05:07:51;;;;;;;25.77;14.80;;;;;;;;;;5112602;28;20198;-85
2021/06/16 05:10:16;;;;;;;24.13;14.90;;;18.10;99.90;;;;;;5112716;28;20207;-85
2021/06/16 05:12:43;;;;;;;28.23;15.90;;;;;;;;;;5111121;28;20233;-86
2021/06/16 05:15:13;;;;;;;38.08;16.80;;;18.80;99.90;;;;;;5113050;28;20178;-84
2021/06/16 05:17:40;;;;;;;47.30;17.08;;;18.70;99.90;;;;;;5114294;28;20242;-85
2021/06/16 05:20:08;;;;;;;27.52;16.63;;;20.20;99.90;;;;;;5116093;28;20196;-84
2021/06/16 05:22:34;;;;;;;30.00;17.35;;;18.70;99.90;;;;;;5115747;28;20243;-85
2021/06/16 05:25:02;;;;;;;28.30;16.60;;;18.30;99.90;;;;;;5116191;28;20196;-84
2021/06/16 05:27:28;;;;;;;27.92;16.67;;;18.90;99.90;;;;;;5114134;28;20235;-84
2021/06/16 05:29:54;;;;;;;41.47;17.08;;;;;;;;;;5097060;28;20178;-85
2021/06/16 05:32:21;;;;;;;32.20;16.23;;;18.80;99.90;;;;;;5115607;28;20232;-84
2021/06/16 05:34:46;;;;;;;27.70;15.10;;;18.90;99.90;;;;;;5115240;28;20208;-85
2021/06/16 05:37:13;;;;;;;23.15;15.80;;;;;;;;;;5116074;28;20209;-85
2021/06/16 05:39:39;;;;;;;28.08;15.02;;;20.10;99.90;;;;;;5115511;28;20197;-84
2021/06/16 05:42:05;;;;;;;29.90;14.90;;;;;;;;;;5114302;28;20234;-84
2021/06/16 05:44:31;;;;;;;22.65;14.23;;;19.90;99.90;;;;;;5097324;28;20223;-85
2021/06/16 05:46:57;;;;;;;27.88;14.63;;;;;;;;;;5115469;28;20205;-84
2021/06/16 05:49:23;;;;;;;25.80;14.57;;;19.80;99.90;;;;;;5113882;28;20186;-85
2021/06/16 05:51:49;;;;;;;24.20;15.35;;;;;;;;;;5115040;28;20278;-84
2021/06/16 05:54:15;;;;;;;24.75;15.05;;;20.50;99.90;;;;;;5115553;28;20174;-85
2021/06/16 05:56:41;;;;;;;25.00;13.98;;;;;;;;;;5113655;28;20181;-83
2021/06/16 05:59:08;;;;;;;29.30;14.73;;;20.50;99.90;;;;;;5115451;28;20664;-83
2021/06/16 06:01:35;;;;;;;26.00;12.98;;;20.50;99.90;;;;;;5114622;28;20261;-84
2021/06/16 06:04:06;;;;;;;22.20;13.75;;;;;;;;;;5114933;27;20198;-84
2021/06/16 06:06:32;;;;;;;25.05;13.55;;;;;;;;;;5113828;28;20200;-84
2021/06/16 06:08:58;;;;;;;24.35;13.05;;;;;;;;;;5114538;28;20185;-84
2021/06/16 06:11:24;;;;;;;30.83;15.77;;;;;;;;;;5115056;28;20602;-83
2021/06/16 06:13:51;;;;;;;23.90;13.63;;;;;;;;;;5113061;28;20283;-83
2021/06/16 06:16:17;;;;;;;21.15;13.38;;;;;;;;;;5115257;27;20184;-84
2021/06/16 06:18:43;;;;;;;23.02;14.07;;;;;;;;;;5115071;28;20269;-84
2021/06/16 06:21:09;;;;;;;23.90;13.10;;;21.20;99.90;;;;;;5114719;27;20201;-84
2021/06/16 06:23:36;;;;;;;22.77;13.35;;;21.40;99.90;;;;;;5117578;28;20174;-85
2021/06/16 06:26:02;;;;;;;25.10;12.30;;;;;;;;;;5115103;28;20202;-83
2021/06/16 06:28:28;;;;;;;27.23;12.57;;;;;;;;;;5112188;28;20182;-83
2021/06/16 06:30:54;;;;;;;28.00;12.05;;;;;;;;;;5112025;28;20269;-83
2021/06/16 06:33:20;;;;;;;20.95;11.98;;;;;;;;;;5113446;28;20177;-84
2021/06/16 06:35:46;;;;;;;14.80;10.25;;;;;;;;;;5113157;28;20174;-83
2021/06/16 06:38:13;;;;;;;28.23;11.25;;;;;;;;;;5095352;28;20549;-84
2021/06/16 06:40:40;;;;;;;25.17;10.75;;;;;;;;;;5113198;28;20186;-83
2021/06/16 06:43:06;;;;;;;24.30;12.13;;;;;;;;;;5113225;28;20180;-84
2021/06/16 06:45:32;;;;;;;23.27;11.32;;;;;;;;;;5114619;28;20166;-82
2021/06/16 06:47:58;;;;;;;17.50;10.20;;;;;;;;;;5114190;28;20205;-82
2021/06/16 06:50:24;;;;;;;20.83;10.93;;;22.00;99.90;;;;;;5114866;28;20177;-83
2021/06/16 06:52:50;;;;;;;19.80;10.35;;;;;;;;;;5113375;28;20687;-83
2021/06/16 06:55:16;;;;;;;19.48;9.93;;;;;;;;;;5113228;28;20182;-84
2021/06/16 06:57:42;;;;;;;23.38;9.65;;;;;;;;;;5113582;28;20182;-83
2021/06/16 07:00:10;;;;;;;22.42;9.82;;;22.50;99.90;;;;;;5113858;28;20619;-83
2021/06/16 07:02:36;;;;;;;17.42;9.35;;;;;;;;;;5118692;27;20212;-83
2021/06/16 07:05:03;;;;;;;17.13;9.75;;;;;;;;;;5131315;27;20187;-82
2021/06/16 07:07:29;;;;;;;21.73;10.48;;;;;;;;;;5134698;27;20303;-83
2021/06/16 07:09:55;;;;;;;19.80;10.00;;;;;;;;;;5134008;27;20173;-83
2021/06/16 07:12:21;;;;;;;14.93;9.70;;;;;;;;;;5122220;27;20259;-83
2021/06/16 07:14:47;;;;;;;17.83;10.98;;;;;;;;;;5110155;28;20650;-83
2021/06/16 07:17:13;;;;;;;26.08;12.60;;;;;;;;;;5105863;28;20194;-83
2021/06/16 07:19:39;;;;;;;18.00;9.75;;;;;;;;;;5110742;28;20184;-84
2021/06/16 07:22:05;;;;;;;16.10;8.43;;;22.80;99.90;;;;;;5104036;28;20556;-83
2021/06/16 07:24:31;;;;;;;16.10;8.77;;;;;;;;;;5110491;28;20189;-84
2021/06/16 07:26:57;;;;;;;14.02;8.93;;;;;;;;;;5108245;28;20216;-84
2021/06/16 07:29:23;;;;;;;16.73;8.65;;;;;;;;;;5110936;28;20182;-83
2021/06/16 07:31:50;;;;;;;17.85;9.05;;;23.20;99.90;;;;;;5111106;28;20256;-83
2021/06/16 07:34:16;;;;;;;19.95;9.10;;;;;;;;;;5108647;28;20186;-83
2021/06/16 07:36:43;;;;;;;16.13;7.85;;;;;;;;;;5110756;28;20182;-85
2021/06/16 07:39:09;;;;;;;15.02;8.15;;;;;;;;;;5108461;28;20655;-85
2021/06/16 07:41:35;;;;;;;16.83;8.35;;;23.70;99.90;;;;;;5110481;28;20219;-85
2021/06/16 07:44:01;;;;;;;16.38;8.27;;;;;;;;;;5110074;28;20277;-84
2021/06/16 07:46:27;;;;;;;16.38;8.02;;;;;;;;;;5111531;28;20205;-84
2021/06/16 07:48:53;;;;;;;14.65;8.35;;;;;;;;;;5092286;28;20220;-84
2021/06/16 07:51:20;;;;;;;14.73;7.57;;;23.40;99.90;;;;;;5109595;28;20714;-84
2021/06/16 07:53:46;;;;;;;13.45;7.00;;;;;;;;;;5109588;28;20646;-84
2021/06/16 07:56:13;;;;;;;11.95;7.40;;;;;;;;;;5111122;28;20293;-83
2021/06/16 07:58:39;;;;;;;11.05;6.78;;;;;;;;;;5112172;28;20257;-85
2021/06/16 08:01:05;;;;;;;15.18;7.40;;;;;;;;;;5109800;28;20190;-85
2021/06/16 08:03:31;;;;;;;14.43;7.78;;;;;;;;;;5102647;28;20193;-84
2021/06/16 08:05:57;;;;;;;13.10;7.00;;;;;;;;;;5110055;28;20569;-85
2021/06/16 08:08:26;;;;;;;14.35;7.93;;;;;;;;;;5109437;28;20178;-85
2021/06/16 08:10:52;;;;;;;18.05;8.00;;;;;;;;;;5108354;28;20375;-85
2021/06/16 08:13:18;;;;;;;15.68;7.50;;;23.60;99.90;;;;;;5109654;28;20229;-85
2021/06/16 08:15:44;;;;;;;15.68;7.45;;;;;;;;;;5109823;28;20208;-85
2021/06/16 08:18:12;;;;;;;14.77;7.95;;;;;;;;;;5109298;28;20186;-85
2021/06/16 08:20:38;;;;;;;11.57;7.15;;;;;;;;;;5093968;28;20518;-85
2021/06/16 08:23:06;;;;;;;15.27;7.68;;;;;;;;;;5111807;28;20177;-85
2021/06/16 08:25:32;;;;;;;19.35;9.35;;;;;;;;;;5113731;28;20170;-85
2021/06/16 08:27:58;;;;;;;15.52;8.27;;;;;;;;;;5112846;28;20213;-85
2021/06/16 08:30:24;;;;;;;14.68;6.85;;;;;;;;;;5095433;28;20560;-85
2021/06/16 08:32:50;;;;;;;12.75;7.43;;;;;;;;;;5112511;28;20179;-85
2021/06/16 08:35:16;;;;;;;17.35;7.28;;;;;;;;;;5112835;28;20198;-87
2021/06/16 08:37:43;;;;;;;14.55;7.32;;;;;;;;;;5111164;28;20272;-85
2021/06/16 08:40:09;;;;;;;17.15;7.40;;;24.10;99.90;;;;;;5111790;28;20670;-85
2021/06/16 08:42:35;;;;;;;19.52;9.35;;;;;;;;;;5112223;28;20174;-85
2021/06/16 08:45:02;;;;;;;17.35;7.47;;;24.10;99.90;;;;;;5093687;28;20178;-85
2021/06/16 08:47:29;;;;;;;23.02;8.85;;;;;;;;;;5110843;28;20723;-84
2021/06/16 08:49:55;;;;;;;19.17;9.20;;;;;;;;;;5111882;28;20174;-85
2021/06/16 08:52:21;;;;;;;15.07;7.82;;;;;;;;;;5114544;28;20170;-86
2021/06/16 08:54:47;;;;;;;15.45;9.25;;;19.60;99.90;;;;;;5117125;28;20705;-85
2021/06/16 08:57:13;;;;;;;16.20;8.30;;;;;;;;;;5116955;28;20266;-84
2021/06/16 08:59:39;;;;;;;15.82;7.70;;;;;;;;;;5117023;28;20173;-84
2021/06/16 09:02:05;;;;;;;8.00;6.80;;;;;;;;;;5116919;28;20257;-85
2021/06/16 09:04:41;;;;;;;13.85;8.50;;;23.00;99.90;;;;;;5117021;28;20682;-85
2021/06/16 09:07:10;;;;;;;13.85;7.35;;;23.50;99.90;;;;;;5115058;28;20240;-84
2021/06/16 09:09:36;;;;;;;19.75;9.15;;;;;;;;;;5116611;28;20209;-84
2021/06/16 09:12:05;;;;;;;15.07;7.97;;;;;;;;;;5115161;28;20178;-85
2021/06/16 09:14:32;;;;;;;17.45;9.82;;;23.90;99.90;;;;;;5114674;28;20268;-84
2021/06/16 09:17:03;;;;;;;16.65;9.05;;;24.30;99.90;;;;;;5115311;28;20201;-84
2021/06/16 09:19:32;;;;;;;14.38;7.57;;;24.50;99.90;;;;;;5114699;28;20162;-84
2021/06/16 09:22:02;;;;;;;22.08;9.88;;;24.80;99.90;;;;;;5114508;28;20198;-87
2021/06/16 09:24:44;;;;;;;19.52;8.32;;;25.40;99.90;;;;;;5116414;28;20252;-85
2021/06/16 09:27:10;;;;;;;14.38;8.40;;;;;;;;;;5116100;28;20209;-85
2021/06/16 09:29:37;;;;;;;21.13;8.50;;;;;;;;;;5116618;28;20178;-85
2021/06/16 09:32:04;;;;;;;14.88;8.45;;;24.40;99.90;;;;;;5115390;28;20204;-84
2021/06/16 09:34:31;;;;;;;18.00;8.32;;;24.30;99.90;;;;;;5116519;28;20173;-84
2021/06/16 09:37:05;;;;;;;18.33;9.10;;;24.10;99.90;;;;;;5116214;28;20272;-84
2021/06/16 09:39:32;;;;;;;20.52;9.88;;;;;;;;;;5116539;28;20189;-85
2021/06/16 09:42:12;;;;;;;19.25;8.85;;;23.50;99.90;;;;;;5115825;28;20243;-83
2021/06/16 09:44:38;;;;;;;17.50;8.50;;;;;;;;;;5115983;28;20166;-85
2021/06/16 09:47:19;;;;;;;15.55;8.48;;;24.00;99.90;;;;;;5113159;28;20205;-85
2021/06/16 09:49:52;;;;;;;20.17;9.55;;;23.60;99.90;;;;;;5114791;28;20565;-84
2021/06/16 09:52:31;;;;;;;21.98;9.60;;;24.20;99.90;;;;;;5115137;28;20170;-85
2021/06/16 09:55:01;;;;;;;15.00;8.77;;;23.90;99.90;;;;;;5115115;28;20174;-84
2021/06/16 09:57:27;;;;;;;17.80;10.40;;;;;;;;;;5115582;28;20173;-84
2021/06/16 10:00:05;;;;;;;19.10;9.60;;;24.00;99.90;;;;;;5115582;28;20248;-84
2021/06/16 10:02:31;;;;;;;24.40;9.05;;;;;;;;;;5115327;28;20162;-84
2021/06/16 10:05:02;;;;;;;13.68;8.27;;;;;;;;;;5113393;28;20623;-84
2021/06/16 10:07:30;;;;;;;16.17;8.65;;;24.20;99.90;;;;;;5115310;28;20197;-84
2021/06/16 10:10:05;;;;;;;17.67;9.85;;;24.10;99.90;;;;;;5114542;28;20667;-85
2021/06/16 10:12:35;;;;;;;17.05;11.45;;;23.70;99.90;;;;;;5114891;28;20248;-85
2021/06/16 10:15:04;;;;;;;26.55;13.20;;;24.30;99.90;;;;;;5113472;28;20189;-85
2021/06/16 10:17:30;;;;;;;12.77;7.38;;;;;;;;;;5113550;28;20189;-85
2021/06/16 10:19:56;;;;;;;13.00;7.63;;;;;;;;;;5112919;28;20174;-85
2021/06/16 10:22:22;;;;;;;18.27;7.75;;;24.30;99.90;;;;;;5113880;28;20614;-85
2021/06/16 10:24:48;;;;;;;11.63;7.10;;;;;;;;;;5114502;28;20178;-84
2021/06/16 10:27:31;;;;;;;14.20;7.45;;;25.00;99.90;;;;;;5097260;28;20296;-85
2021/06/16 10:30:12;;;;;;;10.98;6.80;;;25.40;99.90;;;;;;5112913;28;20533;-85
2021/06/16 10:32:41;;;;;;;10.90;6.45;;;25.70;99.90;;;;;;5112620;28;20182;-85
2021/06/16 10:35:12;;;;;;;14.75;6.47;;;25.70;98.50;;;;;;5110761;28;20170;-85
2021/06/16 10:37:42;;;;;;;9.27;5.70;;;25.50;99.90;;;;;;5113429;28;20272;-85
2021/06/16 10:40:17;;;;;;;11.15;5.95;;;;;;;;;;5112854;28;20166;-85
2021/06/16 10:42:58;;;;;;;10.02;6.68;;;25.50;99.90;;;;;;5113123;28;20212;-86
2021/06/16 10:45:27;;;;;;;11.25;6.57;;;25.00;99.20;;;;;;5113579;28;20256;-85
2021/06/16 10:48:10;;;;;;;11.80;6.22;;;24.70;99.90;;;;;;5112028;28;20249;-85
2021/06/16 10:50:45;;;;;;;12.60;7.30;;;24.40;99.90;;;;;;5113613;28;20648;-85
2021/06/16 10:53:12;;;;;;;12.40;6.60;;;;;;;;;;5114022;28;20176;-86
2021/06/16 10:55:56;;;;;;;14.38;7.05;;;25.00;99.90;;;;;;5112813;28;20214;-85
2021/06/16 10:58:27;;;;;;;11.10;6.65;;;24.50;99.90;;;;;;5111317;28;20177;-85
2021/06/16 11:01:18;;;;;;;11.75;6.55;;;24.40;99.90;;;;;;5111650;28;20181;-85
2021/06/16 11:03:47;;;;;;;8.45;6.65;;;24.30;99.90;;;;;;5112739;28;20592;-85
2021/06/16 11:06:37;;;;;;;9.70;6.40;;;24.70;99.90;;;;;;5109800;28;20730;-85
2021/06/16 11:09:11;;;;;;;9.57;6.40;;;24.40;99.90;;;;;;5111490;28;20566;-85
2021/06/16 11:12:00;;;;;;;11.73;6.22;;;24.40;99.90;;;;;;5113781;28;20504;-85
2021/06/16 11:14:39;;;;;;;7.93;5.75;;;24.60;99.90;;;;;;5110871;28;20220;-84
2021/06/16 11:17:05;;;;;;;19.52;7.00;;;;;;;;;;5112498;28;20173;-85
2021/06/16 11:19:36;;;;;;;9.30;6.55;;;24.90;99.90;;;;;;5113836;28;20181;-84
2021/06/16 11:22:24;;;;;;;12.75;6.20;;;24.80;99.90;;;;;;5113743;28;20177;-84
2021/06/16 11:25:09;;;;;;;8.98;5.90;;;26.20;99.90;;;;;;5098444;28;20196;-84
2021/06/16 11:27:53;;;;;;;12.27;5.65;;;25.70;99.90;;;;;;5113035;28;20205;-86
2021/06/16 11:30:47;;;;;;;17.17;8.27;;;25.60;99.90;;;;;;5113648;28;20177;-85
2021/06/16 11:33:13;;;;;;;12.75;7.90;;;;;;;;;;5111251;28;20174;-86
2021/06/16 11:35:41;;;;;;;13.20;7.75;;;25.30;99.90;;;;;;5111011;28;20198;-86
2021/06/16 11:38:08;;;;;;;15.88;8.65;;;25.40;99.90;;;;;;5113230;28;20236;-84
2021/06/16 11:40:34;;;;;;;13.80;7.43;;;;;;;;;;5113464;28;20182;-85
2021/06/16 11:43:00;;;;;;;12.80;6.93;;;;;;;;;;5109419;28;20188;-85
2021/06/16 11:45:28;;;;;;;13.25;6.60;;;25.90;99.90;;;;;;5113114;28;20265;-84
2021/06/16 11:47:55;;;;;;;12.85;7.82;;;26.10;99.90;;;;;;5112021;28;20197;-84
2021/06/16 11:50:32;;;;;;;13.90;7.63;;;26.20;99.90;;;;;;5110625;28;20709;-85
2021/06/16 11:53:04;;;;;;;15.10;7.40;;;26.60;99.90;;;;;;5112798;28;20181;-85
2021/06/16 11:55:47;;;;;;;9.60;7.00;;;25.80;99.90;;;;;;5113304;28;20262;-85
2021/06/16 11:58:42;;;;;;;12.32;7.78;;;26.20;97.70;;;;;;5111939;28;20219;-84
2021/06/16 12:01:08;;;;;;;13.70;7.70;;;;;;;;;;5114477;27;20257;-85
2021/06/16 12:03:34;;;;;;;13.70;6.80;;;26.60;99.40;;;;;;5111733;28;20630;-87
2021/06/16 12:06:07;;;;;;;15.45;7.43;;;26.50;99.90;;;;;;5110494;28;20713;-87
2021/06/16 12:08:34;;;;;;;14.45;7.90;;;26.20;99.00;;;;;;5112585;28;20646;-87
2021/06/16 12:11:01;;;;;;;15.25;7.32;;;;;;;;;;5109959;28;20238;-85
2021/06/16 12:13:27;;;;;;;11.98;7.30;;;25.70;99.90;;;;;;5112208;28;20221;-85
2021/06/16 12:15:53;;;;;;;13.98;7.63;;;;;;;;;;5112987;28;20170;-83
2021/06/16 12:18:20;;;;;;;12.23;7.22;;;;;;;;;;5111210;28;20234;-84
2021/06/16 12:20:51;;;;;;;12.57;7.40;;;25.70;99.90;;;;;;5111653;28;20169;-84
2021/06/16 12:23:40;;;;;;;10.50;7.05;;;25.30;99.90;;;;;;5112531;28;20275;-84
2021/06/16 12:26:17;;;;;;;11.82;6.60;;;25.20;99.90;;;;;;5113197;28;20170;-85
2021/06/16 12:28:52;;;;;;;11.13;6.88;;;25.20;99.90;;;;;;5114960;28;20174;-85
2021/06/16 12:31:27;;;;;;;23.65;8.30;;;25.30;99.90;;;;;;5117104;28;20189;-85
2021/06/16 12:36:29;;;;;;;11.27;6.72;;;25.30;99.90;;;;;;5115820;27;20217;-85
2021/06/16 12:39:11;;;;;;;12.25;6.60;;;25.70;99.90;;;;;;5115867;28;20177;-85
2021/06/16 12:41:37;;;;;;;14.43;6.40;;;;;;;;;;5114755;28;20520;-85
2021/06/16 12:44:18;;;;;;;12.98;7.20;;;25.10;99.90;;;;;;5115344;28;20607;-85
2021/06/16 12:47:03;;;;;;;12.63;6.90;;;25.60;99.90;;;;;;5115134;28;20909;-85
2021/06/16 12:49:35;;;;;;;9.35;7.03;;;25.10;99.30;;;;;;5114331;28;20162;-84
2021/06/16 12:52:04;;;;;;;12.20;8.55;;;25.00;99.50;;;;;;5112719;28;20227;-85
2021/06/16 12:54:30;;;;;;;11.48;7.70;;;;;;;;;;5113213;28;20178;-85
2021/06/16 12:57:05;;;;;;;14.07;7.30;;;25.70;99.90;;;;;;5114134;28;20231;-85
2021/06/16 12:59:37;;;;;;;13.75;6.90;;;25.70;99.00;;;;;;5115539;28;20222;-85
2021/06/16 13:02:04;;;;;;;15.20;8.15;;;25.70;99.90;;;;;;5115990;28;20185;-85
2021/06/16 13:04:43;;;;;;;8.68;7.10;;;25.90;99.90;;;;;;5114719;28;20178;-85
2021/06/16 13:07:09;;;;;;;9.73;6.55;;;;;;;;;;5116116;28;20197;-84
2021/06/16 13:09:35;;;;;;;10.43;7.80;;;;;;;;;;5114539;28;20541;-84
2021/06/16 13:12:07;;;;;;;14.38;6.75;;;26.10;99.90;;;;;;5115537;28;20166;-83
2021/06/16 13:14:41;;;;;;;9.07;6.40;;;;;;;;;;5115872;28;20223;-84
2021/06/16 13:17:08;;;;;;;11.30;7.45;;;26.30;98.90;;;;;;5115503;28;20595;-85
2021/06/16 13:19:54;;;;;;;12.48;7.65;;;26.20;99.90;;;;;;5115924;28;20698;-83
2021/06/16 13:22:33;;;;;;;9.93;6.93;;;26.20;98.90;;;;;;5112140;28;20177;-84